Portada
METAR-TAF:

METAR-TAF

Aeropuertos :

Nimes, Francia

latitud: 43-45N, longitud: 004-25E, altitud: 94 m

Observación

El informe se hizo hace 37 minutos, a las 03:00 UTC
Viento 5 kt del norte
Temperatura 21°C
Humedad 69%
Presión 1018 hPa
Visibilidad 10 km o más
sin nubes por debajo de 1500 m y sin presencia de cumulonimbus.

METAR: LFTW 200300Z AUTO 36005KT CAVOK 21/15 Q1018 NOSIG

Hora: 05:37 (03:37 UTC)

Pronóstico

El informe se hizo hace 1 hora y 37 minutos, a las 02:00 UTC
Pronóstico válido del 20 a las 03 UTC al 21 a las 03 UTC
Viento 8 kt del norte
Visibilidad 10 km o más
sin nubes por debajo de 1500 m y sin presencia de cumulonimbus.
Evolucionando progresivamente
del 20 a las 09 UTC al 20 a las 11 UTC
Viento 10 kt del sur-sureste
Evolucionando progresivamente
del 20 a las 20 UTC al 20 a las 22 UTC
Viento 5 kt con dirección variable

TAF: LFTW 200200Z 2003/2103 36008KT CAVOK BECMG 2009/2011 16010KT BECMG 2020/2022 VRB05KT

Observaciones y pronósticos meteorológicos de más de 4000 aeropuertos (mensajes METAR y TAF).

Los puntos amarillos y rojos representan las estaciones disponibles.

Ponga el ratón en el punto deseado para ver el nombre de la estación.

Haga clic para ver las observaciones y los pronósticos meteorológicos.

Para cambiar el mapa : haga clic en los botones verdes con una cruz de color negro para hacer un zoom, en el botón verde con un guión para alejar o en las flechas verdes para mapas adyacentes.


METAR-TAF: